createdAt,value
2023-02-05T00:02:08.281Z,2.03
2023-02-05T00:04:36.226Z,2.04
2023-02-05T00:07:03.628Z,1.97
2023-02-05T00:09:31.263Z,1.96
2023-02-05T00:12:00.105Z,1.99
2023-02-05T00:14:27.638Z,2.01
2023-02-05T00:16:55.252Z,1.97
2023-02-05T00:19:22.699Z,1.91
2023-02-05T00:21:50.168Z,1.84
2023-02-05T00:24:17.606Z,1.78
2023-02-05T00:26:45.038Z,1.75
2023-02-05T00:29:13.798Z,1.74
2023-02-05T00:31:41.350Z,1.73
2023-02-05T00:34:08.883Z,1.72
2023-02-05T00:36:36.330Z,1.73
2023-02-05T00:39:03.738Z,1.70
2023-02-05T00:41:31.098Z,1.67
2023-02-05T00:43:58.542Z,1.59
2023-02-05T00:46:27.384Z,1.55
2023-02-05T00:48:54.882Z,1.49
2023-02-05T00:51:22.424Z,1.41
2023-02-05T00:53:49.868Z,1.34
2023-02-05T00:56:17.293Z,1.27
2023-02-05T00:58:47.486Z,1.20
2023-02-05T01:01:15.170Z,1.16
2023-02-05T01:03:44.315Z,1.17
2023-02-05T01:06:11.999Z,1.16
2023-02-05T01:08:39.900Z,1.20
2023-02-05T01:11:07.609Z,1.23
2023-02-05T01:13:35.068Z,1.25
2023-02-05T01:16:02.539Z,1.22
2023-02-05T01:18:29.924Z,1.23
2023-02-05T01:20:59.186Z,1.27
2023-02-05T01:23:26.606Z,1.27
2023-02-05T01:25:53.974Z,1.26
2023-02-05T01:28:21.341Z,1.27
2023-02-05T01:30:49.122Z,1.32
2023-02-05T01:33:16.837Z,1.35
2023-02-05T01:35:44.943Z,1.43
2023-02-05T01:38:13.811Z,1.49
2023-02-05T01:40:41.229Z,1.52
2023-02-05T01:43:12.236Z,1.53
2023-02-05T01:45:50.905Z,1.48
2023-02-05T01:48:21.516Z,1.38
2023-02-05T01:50:51.907Z,1.27
2023-02-05T01:53:22.941Z,1.23
2023-02-05T01:56:00.165Z,1.19
2023-02-05T01:58:28.644Z,1.16
2023-02-05T02:00:56.346Z,1.12
2023-02-05T02:03:25.911Z,1.08
2023-02-05T02:05:53.288Z,1.00
2023-02-05T02:08:22.027Z,0.93
2023-02-05T02:10:49.641Z,0.87
2023-02-05T02:13:19.326Z,0.86
2023-02-05T02:15:47.682Z,0.82
2023-02-05T02:18:27.342Z,0.77
2023-02-05T02:21:05.531Z,0.75
2023-02-05T02:23:40.816Z,0.75
2023-02-05T02:26:17.065Z,0.71
2023-02-05T02:28:46.972Z,0.63
2023-02-05T02:31:18.273Z,0.58
2023-02-05T02:33:49.045Z,0.59
2023-02-05T02:36:21.000Z,0.61
2023-02-05T02:38:51.781Z,0.62
2023-02-05T02:41:20.634Z,0.59
2023-02-05T02:43:51.920Z,0.58
2023-02-05T02:46:22.054Z,0.54
2023-02-05T02:48:52.004Z,0.51
2023-02-05T02:51:21.303Z,0.49
2023-02-05T02:53:50.204Z,0.47
2023-02-05T02:56:18.386Z,0.47
2023-02-05T02:58:47.716Z,0.47
2023-02-05T03:01:18.118Z,0.46
2023-02-05T03:03:52.057Z,0.41
2023-02-05T03:06:19.765Z,0.35
2023-02-05T03:08:51.355Z,0.32
2023-02-05T03:11:18.701Z,0.30
2023-02-05T03:13:46.454Z,0.26
2023-02-05T03:16:15.481Z,0.27
2023-02-05T03:18:44.376Z,0.27
2023-02-05T03:21:14.560Z,0.28
2023-02-05T03:23:41.946Z,0.26
2023-02-05T03:26:22.919Z,0.22
2023-02-05T03:28:50.329Z,0.19
2023-02-05T03:31:20.198Z,0.17
2023-02-05T03:33:56.718Z,0.21
2023-02-05T03:36:26.912Z,0.22
2023-02-05T03:39:14.523Z,0.19
2023-02-05T03:41:57.230Z,0.23
2023-02-05T03:44:29.421Z,0.22
2023-02-05T03:47:00.324Z,0.18
2023-02-05T03:49:36.400Z,0.17
2023-02-05T03:52:06.180Z,0.21
2023-02-05T03:54:35.232Z,0.21
2023-02-05T03:57:04.996Z,0.25
2023-02-05T03:59:32.818Z,0.27
2023-02-05T04:02:00.605Z,0.30
2023-02-05T04:04:28.207Z,0.32
2023-02-05T04:06:56.937Z,0.33
2023-02-05T04:09:24.413Z,0.33
2023-02-05T04:11:51.824Z,0.36
2023-02-05T04:14:19.232Z,0.37
2023-02-05T04:16:46.674Z,0.34
2023-02-05T04:19:14.074Z,0.36
2023-02-05T04:21:41.446Z,0.41
2023-02-05T04:24:10.412Z,0.40
2023-02-05T04:26:37.839Z,0.39
2023-02-05T04:29:05.442Z,0.34
2023-02-05T04:31:32.881Z,0.29
2023-02-05T04:34:00.276Z,0.27
2023-02-05T04:36:27.677Z,0.30
2023-02-05T04:38:55.050Z,0.32
2023-02-05T04:41:23.804Z,0.33
2023-02-05T04:43:51.287Z,0.29
2023-02-05T04:46:18.765Z,0.27
2023-02-05T04:48:46.171Z,0.25
2023-02-05T04:51:14.504Z,0.24
2023-02-05T04:53:42.400Z,0.25
2023-02-05T04:56:11.099Z,0.27
2023-02-05T04:58:40.260Z,0.30
2023-02-05T05:01:12.158Z,0.32
2023-02-05T05:03:39.558Z,0.33
2023-02-05T05:06:07.357Z,0.39
2023-02-05T05:08:34.816Z,0.48
2023-02-05T05:11:07.047Z,0.54
2023-02-05T05:13:34.506Z,0.54
2023-02-05T05:16:03.283Z,0.55
2023-02-05T05:18:30.760Z,0.54
2023-02-05T05:20:58.264Z,0.55
2023-02-05T05:23:25.675Z,0.56
2023-02-05T05:25:53.038Z,0.61
2023-02-05T05:28:20.423Z,0.65
2023-02-05T05:30:48.196Z,0.63
2023-02-05T05:33:16.934Z,0.61
2023-02-05T05:35:44.347Z,0.58
2023-02-05T05:38:12.429Z,0.57
2023-02-05T05:40:58.402Z,0.51
2023-02-05T05:43:43.273Z,0.49
2023-02-05T05:46:10.708Z,0.49
2023-02-05T05:48:39.474Z,0.48
2023-02-05T05:51:06.831Z,0.50
2023-02-05T05:53:34.240Z,0.57
2023-02-05T05:56:01.596Z,0.63
2023-02-05T05:58:28.957Z,0.67
2023-02-05T06:00:56.529Z,0.70
2023-02-05T06:03:24.048Z,0.71
2023-02-05T06:05:52.776Z,0.75
2023-02-05T06:08:24.298Z,0.76
2023-02-05T06:10:51.728Z,0.77
2023-02-05T06:13:19.117Z,0.76
2023-02-05T06:15:47.403Z,0.81
2023-02-05T06:18:14.811Z,0.86
2023-02-05T06:20:42.229Z,0.88
2023-02-05T06:23:11.206Z,0.91
2023-02-05T06:25:38.611Z,0.93
2023-02-05T06:28:06.316Z,0.94
2023-02-05T06:30:33.744Z,0.93
2023-02-05T06:33:01.111Z,0.92
2023-02-05T06:35:28.642Z,0.93
2023-02-05T06:37:56.034Z,0.93
2023-02-05T06:40:25.879Z,0.96
2023-02-05T06:42:53.509Z,0.98
2023-02-05T06:45:20.882Z,1.03
2023-02-05T06:47:48.367Z,1.07
2023-02-05T06:50:15.822Z,1.14
2023-02-05T06:52:43.213Z,1.17
2023-02-05T06:55:10.623Z,1.23
2023-02-05T06:57:39.344Z,1.22
2023-02-05T07:00:07.256Z,1.22
2023-02-05T07:02:34.760Z,1.22
2023-02-05T07:05:02.150Z,1.26
2023-02-05T07:07:29.505Z,1.31
2023-02-05T07:09:57.044Z,1.34
2023-02-05T07:12:24.436Z,1.38
2023-02-05T07:14:53.209Z,1.40
2023-02-05T07:17:20.945Z,1.43
2023-02-05T07:19:48.445Z,1.47
2023-02-05T07:22:16.213Z,1.50
2023-02-05T07:24:43.621Z,1.52
2023-02-05T07:27:10.987Z,1.51
2023-02-05T07:29:38.360Z,1.50
2023-02-05T07:32:07.308Z,1.50
2023-02-05T07:34:34.679Z,1.48
2023-02-05T07:37:02.037Z,1.47
2023-02-05T07:39:29.514Z,1.54
2023-02-05T07:41:56.917Z,1.55
2023-02-05T07:44:24.289Z,1.55
2023-02-05T07:46:51.759Z,1.58
2023-02-05T07:49:20.478Z,1.61
2023-02-05T07:51:48.700Z,1.60
2023-02-05T07:54:16.393Z,1.62
2023-02-05T07:56:43.842Z,1.68
2023-02-05T07:59:11.587Z,1.71
2023-02-05T08:01:39.001Z,1.77
2023-02-05T08:04:06.393Z,1.79
2023-02-05T08:06:36.455Z,1.81
2023-02-05T08:09:03.835Z,1.83
2023-02-05T08:11:32.647Z,1.87
2023-02-05T08:14:00.238Z,1.90
2023-02-05T08:16:27.754Z,1.91
2023-02-05T08:18:55.196Z,1.93
2023-02-05T08:21:22.565Z,1.91
2023-02-05T08:23:51.281Z,1.90
2023-02-05T08:26:18.952Z,1.91
2023-02-05T08:28:46.792Z,1.94
2023-02-05T08:31:15.049Z,2.00
2023-02-05T08:33:42.430Z,2.03
2023-02-05T08:36:10.533Z,2.05
2023-02-05T08:38:37.901Z,2.08
2023-02-05T08:41:12.402Z,2.12
2023-02-05T08:43:41.806Z,2.18
2023-02-05T08:46:09.676Z,2.23
2023-02-05T08:48:37.144Z,2.25
2023-02-05T08:51:04.789Z,2.24
2023-02-05T08:55:19.268Z,2.26
2023-02-05T08:57:47.046Z,2.25
2023-02-05T09:00:16.097Z,2.26
2023-02-05T09:02:44.737Z,2.28
2023-02-05T09:05:13.520Z,2.29
2023-02-05T09:07:42.002Z,2.27
2023-02-05T09:10:11.860Z,2.28
2023-02-05T09:12:41.356Z,2.27
2023-02-05T09:15:10.024Z,2.29
2023-02-05T09:17:37.699Z,2.25
2023-02-05T09:20:06.788Z,2.23
2023-02-05T09:22:34.370Z,2.27
2023-02-05T09:25:01.983Z,2.30
2023-02-05T09:27:30.543Z,2.31
2023-02-05T09:29:59.823Z,2.34
2023-02-05T09:32:27.382Z,2.35
2023-02-05T09:34:55.029Z,2.40
2023-02-05T09:37:23.065Z,2.40
2023-02-05T09:40:21.641Z,2.38
2023-02-05T09:42:45.456Z,2.37
2023-02-05T09:45:34.035Z,2.36
2023-02-05T09:48:15.104Z,2.37
2023-02-05T09:50:43.802Z,2.40
2023-02-05T09:53:19.724Z,2.41
2023-02-05T09:55:48.212Z,2.41
2023-02-05T09:58:18.508Z,2.41
2023-02-05T10:00:50.304Z,2.45
2023-02-05T10:03:25.518Z,2.47
2023-02-05T10:06:08.946Z,2.48
2023-02-05T10:08:42.040Z,2.48
2023-02-05T10:11:18.238Z,2.46
2023-02-05T10:13:49.365Z,2.44
2023-02-05T10:16:57.542Z,2.44
2023-02-05T10:19:47.688Z,2.44
2023-02-05T10:22:22.259Z,2.48
2023-02-05T10:25:05.050Z,2.51
2023-02-05T10:27:39.625Z,2.53
2023-02-05T10:30:16.974Z,2.56
2023-02-05T10:32:56.292Z,2.56
2023-02-05T10:35:27.223Z,2.56
2023-02-05T10:37:57.954Z,2.56
2023-02-05T10:40:29.475Z,2.57
2023-02-05T10:43:02.709Z,2.60
2023-02-05T10:45:31.262Z,2.64
2023-02-05T10:48:32.670Z,2.67
2023-02-05T10:51:03.326Z,2.70
2023-02-05T10:53:32.389Z,2.71
2023-02-05T10:56:02.679Z,2.77
2023-02-05T10:58:39.127Z,2.80
2023-02-05T11:01:07.175Z,2.83
2023-02-05T11:03:36.822Z,2.88
2023-02-05T11:06:10.078Z,2.87
2023-02-05T11:08:39.574Z,2.85
2023-02-05T11:11:08.861Z,2.88
2023-02-05T11:13:42.879Z,2.87
2023-02-05T11:16:11.151Z,2.88
2023-02-05T11:18:44.056Z,2.87
2023-02-05T11:21:11.591Z,2.93
2023-02-05T11:23:41.000Z,2.94
2023-02-05T11:26:12.005Z,2.98
2023-02-05T11:28:40.747Z,3.02
2023-02-05T11:31:25.267Z,3.06
2023-02-05T11:34:11.964Z,3.06
2023-02-05T11:36:48.562Z,3.02
2023-02-05T11:39:41.425Z,2.95
2023-02-05T11:42:11.298Z,2.96
2023-02-05T11:44:48.274Z,2.98
2023-02-05T11:47:26.406Z,2.96
2023-02-05T11:49:56.296Z,2.91
2023-02-05T11:52:28.624Z,2.89
2023-02-05T11:54:56.493Z,2.91
2023-02-05T11:57:33.806Z,2.93
2023-02-05T12:00:03.615Z,2.94
2023-02-05T12:02:36.572Z,2.97
2023-02-05T12:05:13.311Z,3.00
2023-02-05T12:07:46.053Z,3.04
2023-02-05T12:10:18.642Z,3.09
2023-02-05T12:12:52.580Z,3.08
2023-02-05T12:15:25.765Z,3.09
2023-02-05T12:18:02.286Z,3.06
2023-02-05T12:20:35.374Z,3.07
2023-02-05T12:23:42.044Z,2.99
2023-02-05T12:26:27.350Z,2.93
2023-02-05T12:29:08.848Z,2.91
2023-02-05T12:31:53.795Z,2.92
2023-02-05T12:34:29.572Z,2.94
2023-02-05T12:37:20.501Z,2.95
2023-02-05T12:39:53.699Z,3.00
2023-02-05T12:42:32.709Z,3.01
2023-02-05T12:45:25.920Z,3.00
2023-02-05T12:48:02.604Z,3.04
2023-02-05T12:50:48.117Z,3.05
2023-02-05T12:53:39.619Z,3.06
2023-02-05T12:56:22.924Z,3.08
2023-02-05T12:58:56.730Z,3.10
2023-02-05T13:01:38.097Z,3.07
2023-02-05T13:04:12.677Z,3.08
2023-02-05T13:06:45.576Z,3.09
2023-02-05T13:09:17.303Z,3.14
2023-02-05T13:11:52.680Z,3.15
2023-02-05T13:14:22.673Z,3.14
2023-02-05T13:16:55.070Z,3.14
2023-02-05T13:19:29.382Z,3.07
2023-02-05T13:22:16.249Z,3.02
2023-02-05T13:25:08.373Z,3.01
2023-02-05T13:27:58.782Z,3.01
2023-02-05T13:30:31.757Z,3.03
2023-02-05T13:33:04.493Z,3.03
2023-02-05T13:35:38.599Z,3.04
2023-02-05T13:38:28.524Z,3.01
2023-02-05T13:41:21.428Z,2.95
2023-02-05T13:44:06.845Z,2.93
2023-02-05T13:46:49.189Z,2.93
2023-02-05T13:49:59.106Z,2.94
2023-02-05T13:52:43.133Z,2.95
2023-02-05T13:55:36.192Z,2.94
2023-02-05T13:58:20.351Z,2.95
2023-02-05T14:00:57.073Z,2.94
2023-02-05T14:03:35.228Z,2.92
2023-02-05T14:06:22.477Z,2.92
2023-02-05T14:08:52.678Z,2.94
2023-02-05T14:11:20.437Z,2.95
2023-02-05T14:14:23.542Z,2.94
2023-02-05T14:16:53.862Z,2.96
2023-02-05T14:19:25.720Z,2.98
2023-02-05T14:22:03.330Z,3.02
2023-02-05T14:24:45.930Z,3.05
2023-02-05T14:27:50.357Z,3.09
2023-02-05T14:30:37.756Z,3.09
2023-02-05T14:33:44.824Z,3.07
2023-02-05T14:36:45.563Z,2.99
2023-02-05T14:39:22.932Z,2.92
2023-02-05T14:41:55.880Z,2.88
2023-02-05T14:44:28.142Z,2.81
2023-02-05T14:47:02.469Z,2.77
2023-02-05T14:49:40.189Z,2.76
2023-02-05T14:52:19.347Z,2.81
2023-02-05T14:54:50.188Z,2.85
2023-02-05T14:57:25.408Z,2.87
2023-02-05T14:59:56.455Z,2.86
2023-02-05T15:03:00.980Z,2.88
2023-02-05T15:05:37.803Z,2.94
2023-02-05T15:08:15.184Z,2.95
2023-02-05T15:10:54.638Z,2.84
2023-02-05T15:13:24.835Z,2.80
2023-02-05T15:16:17.073Z,2.86
2023-02-05T15:18:46.590Z,2.91
2023-02-05T15:21:23.191Z,2.88
2023-02-05T15:23:54.501Z,2.87
2023-02-05T15:26:29.173Z,2.87
2023-02-05T15:29:05.451Z,2.87
2023-02-05T15:31:38.282Z,2.85
2023-02-05T15:34:16.838Z,2.91
2023-02-05T15:36:50.730Z,2.94
2023-02-05T15:39:27.882Z,2.97
2023-02-05T15:41:58.791Z,2.98
2023-02-05T15:44:29.469Z,2.97
2023-02-05T15:46:59.272Z,2.96
2023-02-05T15:49:33.470Z,3.02
2023-02-05T15:52:03.261Z,3.03
2023-02-05T15:54:35.485Z,3.02
2023-02-05T15:57:05.503Z,3.00
2023-02-05T15:59:34.981Z,2.97
2023-02-05T16:02:09.034Z,2.94
2023-02-05T16:04:38.300Z,2.93
2023-02-05T16:07:22.087Z,2.91
2023-02-05T16:09:53.979Z,2.94
2023-02-05T16:12:21.751Z,2.96
2023-02-05T16:14:58.876Z,2.97
2023-02-05T16:17:31.627Z,2.95
2023-02-05T16:20:13.433Z,2.94
2023-02-05T16:22:45.935Z,2.96
2023-02-05T16:25:27.941Z,2.98
2023-02-05T16:27:57.295Z,3.05
2023-02-05T16:30:32.040Z,3.06
2023-02-05T16:33:02.090Z,3.03
2023-02-05T16:35:33.871Z,3.04
2023-02-05T16:38:08.806Z,3.06
2023-02-05T16:40:40.329Z,3.07
2023-02-05T16:43:28.228Z,3.08
2023-02-05T16:46:34.828Z,3.09
2023-02-05T16:49:04.541Z,3.03
2023-02-05T16:51:39.353Z,2.95
2023-02-05T16:54:30.832Z,2.92
2023-02-05T16:57:03.356Z,2.89
2023-02-05T16:59:34.241Z,2.93
2023-02-05T17:02:03.382Z,2.94
2023-02-05T17:04:33.937Z,2.89
2023-02-05T17:07:02.946Z,2.91
2023-02-05T17:09:35.359Z,2.89
2023-02-05T17:12:25.925Z,2.85
2023-02-05T17:14:55.325Z,2.86
2023-02-05T17:17:23.730Z,2.88
2023-02-05T17:20:07.718Z,2.87
2023-02-05T17:22:35.340Z,2.86
2023-02-05T17:25:05.993Z,2.83
2023-02-05T17:27:36.921Z,2.80
2023-02-05T17:30:06.801Z,2.81
2023-02-05T17:32:34.516Z,2.84
2023-02-05T17:35:01.982Z,2.90
2023-02-05T17:37:29.472Z,2.88
2023-02-05T17:39:57.775Z,2.92
2023-02-05T17:42:29.849Z,2.93
2023-02-05T17:44:57.367Z,2.89
2023-02-05T17:47:24.841Z,2.85
2023-02-05T17:49:52.343Z,2.87
2023-02-05T17:52:19.886Z,2.88
2023-02-05T17:54:47.408Z,2.92
2023-02-05T17:57:17.958Z,2.91
2023-02-05T17:59:48.135Z,2.88
2023-02-05T18:02:16.623Z,2.89
2023-02-05T18:04:45.015Z,2.89
2023-02-05T18:07:20.711Z,2.92
2023-02-05T18:09:48.600Z,2.93
2023-02-05T18:12:16.212Z,2.93
2023-02-05T18:14:43.708Z,2.94
2023-02-05T18:17:12.643Z,2.93
2023-02-05T18:19:40.180Z,2.88
2023-02-05T18:22:07.892Z,2.86
2023-02-05T18:24:36.941Z,2.82
2023-02-05T18:27:07.492Z,2.80
2023-02-05T18:29:35.219Z,2.80
2023-02-05T18:32:02.876Z,2.81
2023-02-05T18:34:31.813Z,2.83
2023-02-05T18:37:00.120Z,2.86
2023-02-05T18:39:29.452Z,2.86
2023-02-05T18:41:57.330Z,2.86
2023-02-05T18:44:25.103Z,2.86
2023-02-05T18:46:53.145Z,2.87
2023-02-05T18:49:21.107Z,2.86
2023-02-05T18:51:49.941Z,2.84
2023-02-05T18:54:17.525Z,2.80
2023-02-05T18:56:45.038Z,2.78
2023-02-05T18:59:15.717Z,2.77
2023-02-05T19:01:43.716Z,2.76
2023-02-05T19:04:13.296Z,2.74
2023-02-05T19:06:42.241Z,2.72
2023-02-05T19:09:11.777Z,2.69
2023-02-05T19:11:44.425Z,2.65
2023-02-05T19:14:14.804Z,2.65
2023-02-05T19:16:43.112Z,2.64
2023-02-05T19:19:13.227Z,2.63
2023-02-05T19:21:41.699Z,2.58
2023-02-05T19:24:12.096Z,2.54
2023-02-05T19:26:41.721Z,2.52
2023-02-05T19:29:14.149Z,2.51
2023-02-05T19:31:41.916Z,2.51
2023-02-05T19:34:09.820Z,2.51
2023-02-05T19:36:37.792Z,2.53
2023-02-05T19:39:07.931Z,2.52
2023-02-05T19:41:37.775Z,2.54
2023-02-05T19:44:07.500Z,2.57
2023-02-05T19:46:37.380Z,2.61
2023-02-05T19:49:06.808Z,2.65
2023-02-05T19:51:34.709Z,2.70
2023-02-05T19:54:04.102Z,2.68
2023-02-05T19:56:32.394Z,2.66
2023-02-05T19:59:01.323Z,2.61
2023-02-05T20:01:30.216Z,2.56
2023-02-05T20:03:59.818Z,2.54
2023-02-05T20:06:28.497Z,2.51
2023-02-05T20:08:56.731Z,2.48
2023-02-05T20:11:24.430Z,2.47
2023-02-05T20:13:53.572Z,2.52
2023-02-05T20:16:24.160Z,2.59
2023-02-05T20:18:54.880Z,2.66
2023-02-05T20:21:22.765Z,2.73
2023-02-05T20:24:01.360Z,2.73
2023-02-05T20:26:30.356Z,2.70
2023-02-05T20:29:30.717Z,2.63
2023-02-05T20:32:01.870Z,2.55
2023-02-05T20:34:32.408Z,2.51
2023-02-05T20:37:04.223Z,2.47
2023-02-05T20:39:34.744Z,2.43
2023-02-05T20:42:03.424Z,2.40
2023-02-05T20:44:33.748Z,2.38
2023-02-05T20:47:02.879Z,2.40
2023-02-05T20:49:30.627Z,2.45
2023-02-05T20:51:58.189Z,2.52
2023-02-05T20:54:25.805Z,2.59
2023-02-05T20:56:57.014Z,2.64
2023-02-05T20:59:24.767Z,2.68
2023-02-05T21:01:53.637Z,2.70
2023-02-05T21:04:22.772Z,2.72
2023-02-05T21:06:50.331Z,2.75
2023-02-05T21:09:18.081Z,2.78
2023-02-05T21:11:45.948Z,2.79
2023-02-05T21:14:13.580Z,2.85
2023-02-05T21:16:41.124Z,2.87
2023-02-05T21:19:09.401Z,2.88
2023-02-05T21:21:38.524Z,2.89
2023-02-05T21:24:08.860Z,2.88
2023-02-05T21:26:38.115Z,2.85
2023-02-05T21:29:08.178Z,2.82
2023-02-05T21:31:39.345Z,2.85
2023-02-05T21:34:08.922Z,2.83
2023-02-05T21:36:37.796Z,2.83
2023-02-05T21:39:05.805Z,2.80
2023-02-05T21:41:33.351Z,2.74
2023-02-05T21:44:01.296Z,2.73
2023-02-05T21:46:30.573Z,2.75
2023-02-05T21:48:59.806Z,2.76
2023-02-05T21:51:29.492Z,2.75
2023-02-05T21:54:00.793Z,2.74
2023-02-05T21:56:30.654Z,2.70
2023-02-05T21:58:58.410Z,2.65
2023-02-05T22:01:27.777Z,2.61
2023-02-05T22:03:56.910Z,2.58
2023-02-05T22:06:26.117Z,2.59
2023-02-05T22:08:54.226Z,2.57
2023-02-05T22:11:23.683Z,2.53
2023-02-05T22:13:53.341Z,2.50
2023-02-05T22:16:23.511Z,2.46
2023-02-05T22:18:51.257Z,2.46
2023-02-05T22:21:21.521Z,2.43
2023-02-05T22:23:50.902Z,2.41
2023-02-05T22:26:20.931Z,2.37
2023-02-05T22:28:50.210Z,2.34
2023-02-05T22:31:19.607Z,2.33
2023-02-05T22:33:48.629Z,2.34
2023-02-05T22:36:17.924Z,2.37
2023-02-05T22:38:45.849Z,2.38
2023-02-05T22:41:15.082Z,2.38
2023-02-05T22:43:42.873Z,2.37
2023-02-05T22:46:13.770Z,2.36
2023-02-05T22:48:43.015Z,2.38
2023-02-05T22:51:12.574Z,2.39
2023-02-05T22:53:40.330Z,2.41
2023-02-05T22:56:09.687Z,2.48
2023-02-05T22:58:40.438Z,2.51
2023-02-05T23:01:09.321Z,2.54
2023-02-05T23:03:38.818Z,2.60
2023-02-05T23:06:10.949Z,2.65
2023-02-05T23:08:39.167Z,2.67
2023-02-05T23:11:07.537Z,2.71
2023-02-05T23:13:35.320Z,2.70
2023-02-05T23:16:07.726Z,2.67
2023-02-05T23:18:35.481Z,2.62
2023-02-05T23:21:08.488Z,2.54
2023-02-05T23:23:36.143Z,2.53
2023-02-05T23:26:09.090Z,2.51
2023-02-05T23:28:37.228Z,2.50
2023-02-05T23:31:05.222Z,2.50
2023-02-05T23:33:33.889Z,2.51
2023-02-05T23:36:02.988Z,2.53
2023-02-05T23:38:32.209Z,2.53
2023-02-05T23:41:00.093Z,2.53
2023-02-05T23:43:27.962Z,2.54
2023-02-05T23:45:55.954Z,2.56
2023-02-05T23:48:23.619Z,2.59
2023-02-05T23:50:52.506Z,2.64
2023-02-05T23:53:22.002Z,2.67
2023-02-05T23:55:53.098Z,2.66
2023-02-05T23:58:23.118Z,2.66
